createdAt,value
2023-05-06T00:01:34.420Z,86.80
2023-05-06T00:04:00.983Z,86.53
2023-05-06T00:06:28.744Z,88.24
2023-05-06T00:08:55.267Z,87.94
2023-05-06T00:11:21.733Z,87.17
2023-05-06T00:13:48.210Z,86.78
2023-05-06T00:16:15.061Z,88.77
2023-05-06T00:18:42.099Z,88.76
2023-05-06T00:21:08.597Z,89.17
2023-05-06T00:23:35.076Z,88.24
2023-05-06T00:26:01.568Z,86.00
2023-05-06T00:28:28.073Z,85.43
2023-05-06T00:30:54.524Z,88.49
2023-05-06T00:33:21.143Z,86.40
2023-05-06T00:35:48.250Z,88.92
2023-05-06T00:38:17.645Z,87.55
2023-05-06T00:40:44.178Z,88.08
2023-05-06T00:43:10.674Z,87.22
2023-05-06T00:45:37.541Z,88.54
2023-05-06T00:48:05.335Z,88.26
2023-05-06T00:50:33.317Z,88.22
2023-05-06T00:53:00.674Z,87.58
2023-05-06T00:55:27.436Z,89.31
2023-05-06T00:57:54.547Z,88.13
2023-05-06T01:00:21.547Z,88.74
2023-05-06T01:02:48.889Z,89.59
2023-05-06T01:05:19.373Z,89.25
2023-05-06T01:07:48.904Z,87.64
2023-05-06T01:10:27.463Z,85.97
2023-05-06T01:13:19.684Z,87.77
2023-05-06T01:15:47.981Z,89.50
2023-05-06T01:18:18.126Z,90.63
2023-05-06T01:20:49.854Z,91.00
2023-05-06T01:23:17.293Z,87.63
2023-05-06T01:25:44.116Z,88.22
2023-05-06T01:28:12.062Z,87.53
2023-05-06T01:31:05.778Z,87.97
2023-05-06T01:33:37.368Z,89.25
2023-05-06T01:36:13.921Z,88.91
2023-05-06T01:38:54.465Z,86.98
2023-05-06T01:41:21.346Z,90.56
2023-05-06T01:43:48.329Z,89.18
2023-05-06T01:46:22.646Z,89.85
2023-05-06T01:48:55.459Z,90.78
2023-05-06T01:51:23.559Z,89.80
2023-05-06T01:53:51.001Z,88.42
2023-05-06T01:56:17.529Z,89.04
2023-05-06T01:58:44.028Z,89.60
2023-05-06T02:01:10.543Z,90.18
2023-05-06T02:03:37.591Z,90.34
2023-05-06T02:06:04.861Z,90.64
2023-05-06T02:08:31.439Z,91.27
2023-05-06T02:10:57.890Z,87.33
2023-05-06T02:13:24.418Z,89.72
2023-05-06T02:15:54.755Z,90.16
2023-05-06T02:18:21.660Z,89.52
2023-05-06T02:20:48.128Z,89.37
2023-05-06T02:23:14.658Z,89.94
2023-05-06T02:25:41.139Z,89.41
2023-05-06T02:28:07.631Z,89.47
2023-05-06T02:30:34.658Z,90.34
2023-05-06T02:33:01.250Z,88.22
2023-05-06T02:35:27.818Z,87.22
2023-05-06T02:37:54.310Z,87.26
2023-05-06T02:40:20.805Z,87.66
2023-05-06T02:42:47.382Z,87.09
2023-05-06T02:45:13.942Z,88.96
2023-05-06T02:47:40.665Z,89.44
2023-05-06T02:50:07.570Z,90.62
2023-05-06T02:52:34.988Z,89.47
2023-05-06T02:55:01.939Z,90.25
2023-05-06T02:57:28.648Z,90.26
2023-05-06T02:59:55.213Z,90.89
2023-05-06T03:02:21.803Z,90.72
2023-05-06T03:04:48.342Z,90.76
2023-05-06T03:07:14.779Z,90.51
2023-05-06T03:09:41.303Z,88.85
2023-05-06T03:12:07.734Z,91.30
2023-05-06T03:14:34.209Z,89.87
2023-05-06T03:17:00.720Z,89.38
2023-05-06T03:19:27.232Z,89.89
2023-05-06T03:21:53.760Z,89.63
2023-05-06T03:24:20.339Z,89.03
2023-05-06T03:26:46.767Z,89.93
2023-05-06T03:29:13.230Z,87.93
2023-05-06T03:31:39.811Z,87.48
2023-05-06T03:34:06.335Z,87.36
2023-05-06T03:36:33.112Z,85.70
2023-05-06T03:38:59.617Z,88.01
2023-05-06T03:41:26.138Z,88.51
2023-05-06T03:43:54.143Z,89.98
2023-05-06T03:46:20.623Z,89.50
2023-05-06T03:48:47.152Z,88.14
2023-05-06T03:51:13.770Z,87.93
2023-05-06T03:53:40.294Z,87.67
2023-05-06T03:56:07.177Z,88.79
2023-05-06T03:58:33.656Z,87.64
2023-05-06T04:01:01.060Z,87.89
2023-05-06T04:03:27.807Z,87.80
2023-05-06T04:05:54.357Z,87.53
2023-05-06T04:08:20.914Z,87.83
2023-05-06T04:10:47.610Z,89.28
2023-05-06T04:13:14.178Z,88.33
2023-05-06T04:15:41.535Z,86.50
2023-05-06T04:18:08.332Z,88.82
2023-05-06T04:20:34.983Z,88.76
2023-05-06T04:23:01.867Z,88.73
2023-05-06T04:25:28.801Z,90.39
2023-05-06T04:27:55.270Z,87.81
2023-05-06T04:30:22.563Z,88.72
2023-05-06T04:32:49.113Z,88.09
2023-05-06T04:35:16.316Z,88.27
2023-05-06T04:37:43.525Z,88.06
2023-05-06T04:40:12.234Z,88.41
2023-05-06T04:42:38.892Z,89.78
2023-05-06T04:45:05.795Z,87.54
2023-05-06T04:47:32.432Z,85.87
2023-05-06T04:49:58.988Z,86.88
2023-05-06T04:52:26.209Z,88.10
2023-05-06T04:54:52.680Z,86.89
2023-05-06T04:57:19.111Z,85.99
2023-05-06T04:59:46.353Z,87.60
2023-05-06T05:02:12.974Z,88.19
2023-05-06T05:04:39.525Z,89.32
2023-05-06T05:07:07.405Z,89.44
2023-05-06T05:09:35.027Z,87.94
2023-05-06T05:12:02.604Z,87.65
2023-05-06T05:14:29.072Z,86.18
2023-05-06T05:16:55.834Z,87.06
2023-05-06T05:19:22.374Z,87.43
2023-05-06T05:21:49.262Z,87.83
2023-05-06T05:24:16.043Z,87.74
2023-05-06T05:26:42.502Z,89.36
2023-05-06T05:29:08.981Z,87.09
2023-05-06T05:31:35.481Z,85.12
2023-05-06T05:34:02.009Z,87.50
2023-05-06T05:36:28.524Z,85.45
2023-05-06T05:38:54.998Z,86.29
2023-05-06T05:41:21.668Z,85.48
2023-05-06T05:43:48.181Z,86.21
2023-05-06T05:46:14.703Z,87.09
2023-05-06T05:48:41.334Z,87.39
2023-05-06T05:51:07.800Z,87.19
2023-05-06T05:53:34.261Z,87.18
2023-05-06T05:56:00.742Z,86.75
2023-05-06T05:58:27.242Z,83.54
2023-05-06T06:00:53.907Z,85.89
2023-05-06T06:03:20.475Z,86.31
2023-05-06T06:05:49.304Z,85.95
2023-05-06T06:08:17.417Z,87.36
2023-05-06T06:10:43.872Z,86.53
2023-05-06T06:13:10.385Z,87.92
2023-05-06T06:15:36.927Z,87.13
2023-05-06T06:18:03.523Z,88.23
2023-05-06T06:20:30.058Z,88.76
2023-05-06T06:22:56.514Z,86.43
2023-05-06T06:25:22.978Z,88.17
2023-05-06T06:27:49.425Z,85.92
2023-05-06T06:30:16.038Z,86.48
2023-05-06T06:32:50.098Z,88.46
2023-05-06T06:35:17.114Z,86.19
2023-05-06T06:37:43.615Z,86.39
2023-05-06T06:40:11.290Z,86.01
2023-05-06T06:42:38.024Z,86.07
2023-05-06T06:45:05.293Z,86.14
2023-05-06T06:47:31.735Z,85.82
2023-05-06T06:49:58.223Z,85.44
2023-05-06T06:52:24.775Z,86.01
2023-05-06T06:54:51.261Z,87.28
2023-05-06T06:57:17.842Z,85.81
2023-05-06T06:59:44.702Z,86.82
2023-05-06T07:02:11.138Z,87.60
2023-05-06T07:04:37.702Z,87.30
2023-05-06T07:07:04.187Z,87.05
2023-05-06T07:09:30.626Z,86.00
2023-05-06T07:11:58.585Z,87.79
2023-05-06T07:14:25.882Z,86.04
2023-05-06T07:16:52.355Z,87.51
2023-05-06T07:19:18.952Z,87.09
2023-05-06T07:21:45.422Z,85.58
2023-05-06T07:24:11.908Z,83.94
2023-05-06T07:26:38.480Z,85.37
2023-05-06T07:29:04.943Z,85.30
2023-05-06T07:31:34.624Z,86.47
2023-05-06T07:34:01.226Z,85.57
2023-05-06T07:36:28.732Z,86.16
2023-05-06T07:38:55.290Z,87.62
2023-05-06T07:41:21.735Z,86.42
2023-05-06T07:43:48.173Z,86.08
2023-05-06T07:46:14.658Z,84.43
2023-05-06T07:48:41.190Z,83.53
2023-05-06T07:51:07.677Z,83.19
2023-05-06T07:53:34.161Z,84.76
2023-05-06T07:56:02.561Z,86.63
2023-05-06T07:58:30.225Z,84.04
2023-05-06T08:00:56.737Z,85.05
2023-05-06T08:03:23.604Z,84.50
2023-05-06T08:05:53.581Z,84.74
2023-05-06T08:08:20.109Z,84.64
2023-05-06T08:10:46.754Z,87.16
2023-05-06T08:13:13.306Z,84.38
2023-05-06T08:15:39.946Z,86.58
2023-05-06T08:18:21.103Z,86.74
2023-05-06T08:20:48.573Z,86.15
2023-05-06T08:23:15.129Z,85.19
2023-05-06T08:25:41.640Z,86.07
2023-05-06T08:28:08.099Z,85.84
2023-05-06T08:30:34.584Z,85.46
2023-05-06T08:33:01.921Z,85.43
2023-05-06T08:35:28.403Z,85.41
2023-05-06T08:37:54.848Z,84.19
2023-05-06T08:40:22.513Z,84.56
2023-05-06T08:42:49.940Z,84.93
2023-05-06T08:45:19.802Z,83.91
2023-05-06T08:47:47.435Z,84.42
2023-05-06T08:50:14.115Z,82.98
2023-05-06T08:52:40.637Z,84.60
2023-05-06T08:55:08.100Z,85.32
2023-05-06T08:57:35.123Z,84.13
2023-05-06T09:00:01.944Z,83.47
2023-05-06T09:02:28.618Z,84.50
2023-05-06T09:04:56.556Z,85.28
2023-05-06T09:07:23.988Z,84.94
2023-05-06T09:09:51.637Z,84.33
2023-05-06T09:12:18.568Z,84.18
2023-05-06T09:14:46.701Z,82.63
2023-05-06T09:17:27.890Z,84.05
2023-05-06T09:19:56.966Z,84.09
2023-05-06T09:22:24.710Z,84.52
2023-05-06T09:24:57.655Z,82.81
2023-05-06T09:27:28.415Z,84.61
2023-05-06T09:30:08.782Z,84.21
2023-05-06T09:32:38.359Z,83.52
2023-05-06T09:35:07.323Z,82.20
2023-05-06T09:37:33.938Z,81.63
2023-05-06T09:40:01.133Z,83.51
2023-05-06T09:42:29.636Z,83.46
2023-05-06T09:45:00.548Z,83.29
2023-05-06T09:47:29.957Z,82.75
2023-05-06T09:49:58.393Z,83.61
2023-05-06T09:52:27.314Z,85.28
2023-05-06T09:54:54.828Z,86.38
2023-05-06T09:57:22.350Z,85.83
2023-05-06T09:59:49.186Z,83.51
2023-05-06T10:02:16.403Z,82.84
2023-05-06T10:04:43.603Z,82.52
2023-05-06T10:07:13.754Z,82.57
2023-05-06T10:09:41.146Z,83.45
2023-05-06T10:12:08.862Z,82.95
2023-05-06T10:14:36.789Z,83.24
2023-05-06T10:17:08.553Z,82.73
2023-05-06T10:19:35.616Z,82.82
2023-05-06T10:22:34.990Z,82.90
2023-05-06T10:25:13.084Z,83.97
2023-05-06T10:27:43.475Z,83.56
2023-05-06T10:30:11.379Z,82.91
2023-05-06T10:32:43.095Z,81.71
2023-05-06T10:35:16.630Z,82.96
2023-05-06T10:37:43.760Z,82.93
2023-05-06T10:40:11.419Z,83.63
2023-05-06T10:42:37.880Z,83.87
2023-05-06T10:45:05.936Z,82.65
2023-05-06T10:47:57.699Z,81.95
2023-05-06T10:50:25.440Z,83.29
2023-05-06T10:52:56.589Z,82.07
2023-05-06T10:55:37.737Z,82.76
2023-05-06T10:58:12.162Z,83.46
2023-05-06T11:00:38.656Z,82.88
2023-05-06T11:03:07.587Z,82.37
2023-05-06T11:05:51.882Z,82.38
2023-05-06T11:08:23.719Z,83.26
2023-05-06T11:10:50.219Z,82.40
2023-05-06T11:13:27.666Z,81.85
2023-05-06T11:15:55.664Z,81.59
2023-05-06T11:18:25.153Z,82.10
2023-05-06T11:20:52.510Z,80.78
2023-05-06T11:23:19.078Z,81.63
2023-05-06T11:25:47.264Z,82.96
2023-05-06T11:28:14.726Z,82.28
2023-05-06T11:30:43.728Z,82.58
2023-05-06T11:33:19.968Z,81.88
2023-05-06T11:35:46.466Z,80.93
2023-05-06T11:38:13.022Z,82.06
2023-05-06T11:40:41.935Z,81.67
2023-05-06T11:43:13.076Z,83.19
2023-05-06T11:45:47.299Z,83.12
2023-05-06T11:48:18.039Z,81.52
2023-05-06T11:50:48.671Z,81.55
2023-05-06T11:53:18.952Z,81.72
2023-05-06T11:55:46.417Z,81.93
2023-05-06T11:58:17.007Z,81.01
2023-05-06T12:01:01.458Z,81.32
2023-05-06T12:03:30.158Z,80.49
2023-05-06T12:05:57.161Z,81.53
2023-05-06T12:08:27.868Z,81.02
2023-05-06T12:10:57.030Z,80.56
2023-05-06T12:13:23.672Z,80.08
2023-05-06T12:15:50.483Z,78.63
2023-05-06T12:18:17.112Z,78.28
2023-05-06T12:20:44.373Z,78.23
2023-05-06T12:23:15.395Z,78.63
2023-05-06T12:25:43.130Z,79.64
2023-05-06T12:28:20.859Z,79.19
2023-05-06T12:30:47.433Z,78.31
2023-05-06T12:33:13.929Z,79.15
2023-05-06T12:35:41.101Z,79.50
2023-05-06T12:38:25.993Z,80.60
2023-05-06T12:40:54.550Z,82.61
2023-05-06T12:43:29.391Z,81.33
2023-05-06T12:46:06.745Z,80.24
2023-05-06T12:48:33.515Z,80.78
2023-05-06T12:51:00.057Z,80.37
2023-05-06T12:53:34.686Z,80.80
2023-05-06T12:56:01.168Z,78.81
2023-05-06T12:58:37.654Z,79.61
2023-05-06T13:01:04.586Z,79.93
2023-05-06T13:03:31.156Z,82.21
2023-05-06T13:05:57.756Z,80.01
2023-05-06T13:08:24.205Z,81.09
2023-05-06T13:10:50.995Z,80.48
2023-05-06T13:13:17.463Z,81.16
2023-05-06T13:15:43.947Z,79.29
2023-05-06T13:18:10.449Z,78.66
2023-05-06T13:20:36.945Z,79.00
2023-05-06T13:23:03.884Z,80.78
2023-05-06T13:25:30.358Z,80.67
2023-05-06T13:27:56.801Z,80.94
2023-05-06T13:30:23.299Z,80.92
2023-05-06T13:32:49.803Z,79.81
2023-05-06T13:35:16.339Z,79.26
2023-05-06T13:37:42.882Z,79.15
2023-05-06T13:40:10.241Z,80.96
2023-05-06T13:42:36.829Z,81.96
2023-05-06T13:45:03.446Z,79.35
2023-05-06T13:47:29.900Z,77.54
2023-05-06T13:49:56.364Z,77.76
2023-05-06T13:52:22.806Z,79.82
2023-05-06T13:54:49.606Z,78.29
2023-05-06T13:57:16.045Z,78.49
2023-05-06T13:59:42.545Z,77.32
2023-05-06T14:02:09.996Z,79.23
2023-05-06T14:04:36.728Z,79.89
2023-05-06T14:07:03.257Z,77.85
2023-05-06T14:09:29.699Z,80.52
2023-05-06T14:11:56.138Z,79.85
2023-05-06T14:14:22.599Z,78.31
2023-05-06T14:16:49.088Z,78.26
2023-05-06T14:19:15.546Z,78.35
2023-05-06T14:21:41.988Z,80.61
2023-05-06T14:24:10.176Z,80.60
2023-05-06T14:26:36.731Z,79.23
2023-05-06T14:29:03.831Z,80.42
2023-05-06T14:31:30.426Z,80.89
2023-05-06T14:33:57.378Z,77.66
2023-05-06T14:36:24.924Z,78.27
2023-05-06T14:38:51.377Z,77.60
2023-05-06T14:41:17.842Z,78.64
2023-05-06T14:43:44.297Z,78.75
2023-05-06T14:46:11.598Z,78.44
2023-05-06T14:48:38.091Z,78.27
2023-05-06T14:51:05.046Z,77.88
2023-05-06T14:53:31.480Z,77.11
2023-05-06T14:55:57.918Z,77.18
2023-05-06T14:58:24.486Z,77.93
2023-05-06T15:00:50.966Z,78.54
2023-05-06T15:03:17.452Z,77.84
2023-05-06T15:05:43.947Z,77.11
2023-05-06T15:08:10.461Z,78.05
2023-05-06T15:10:37.044Z,77.77
2023-05-06T15:13:03.743Z,77.59
2023-05-06T15:15:30.390Z,79.57
2023-05-06T15:17:56.901Z,77.28
2023-05-06T15:20:23.471Z,77.72
2023-05-06T15:22:50.089Z,79.48
2023-05-06T15:25:30.400Z,80.51
2023-05-06T15:28:00.404Z,79.82
2023-05-06T15:30:27.483Z,79.73
2023-05-06T15:32:54.010Z,78.86
2023-05-06T15:35:22.324Z,79.00
2023-05-06T15:37:55.905Z,79.53
2023-05-06T15:40:27.884Z,77.75
2023-05-06T15:42:55.650Z,79.25
2023-05-06T15:45:22.466Z,76.44
2023-05-06T15:47:49.029Z,77.88
2023-05-06T15:50:29.002Z,77.34
2023-05-06T15:52:59.664Z,77.70
2023-05-06T15:55:26.651Z,78.81
2023-05-06T15:57:54.600Z,78.52
2023-05-06T16:00:21.987Z,78.38
2023-05-06T16:02:48.684Z,77.44
2023-05-06T16:05:15.786Z,79.46
2023-05-06T16:07:42.507Z,78.97
2023-05-06T16:10:09.241Z,78.03
2023-05-06T16:12:36.411Z,77.42
2023-05-06T16:15:03.324Z,78.52
2023-05-06T16:17:30.487Z,76.86
2023-05-06T16:19:57.300Z,77.43
2023-05-06T16:22:23.774Z,79.37
2023-05-06T16:24:50.247Z,78.84
2023-05-06T16:27:16.723Z,78.19
2023-05-06T16:29:43.185Z,79.58
2023-05-06T16:32:09.676Z,80.02
2023-05-06T16:34:38.881Z,78.30
2023-05-06T16:37:07.641Z,79.76
2023-05-06T16:39:34.150Z,79.28
2023-05-06T16:42:01.168Z,78.14
2023-05-06T16:44:29.053Z,79.54
2023-05-06T16:46:56.087Z,77.02
2023-05-06T16:49:22.678Z,79.92
2023-05-06T16:51:49.158Z,78.61
2023-05-06T16:54:15.696Z,79.30
2023-05-06T16:56:51.539Z,77.71
2023-05-06T16:59:21.462Z,79.78
2023-05-06T17:01:48.737Z,76.30
2023-05-06T17:04:18.745Z,76.41
2023-05-06T17:06:45.228Z,78.01
2023-05-06T17:09:12.220Z,76.75
2023-05-06T17:11:38.704Z,77.48
2023-05-06T17:14:05.257Z,76.60
2023-05-06T17:16:31.805Z,76.56
2023-05-06T17:18:58.358Z,77.41
2023-05-06T17:21:24.990Z,77.90
2023-05-06T17:23:54.423Z,79.13
2023-05-06T17:26:21.447Z,78.12
2023-05-06T17:28:48.323Z,80.05
2023-05-06T17:31:15.745Z,79.00
2023-05-06T17:33:42.267Z,78.37
2023-05-06T17:36:09.094Z,77.78
2023-05-06T17:38:35.602Z,79.11
2023-05-06T17:41:02.146Z,79.08
2023-05-06T17:43:28.901Z,79.77
2023-05-06T17:45:55.992Z,79.20
2023-05-06T17:48:22.723Z,78.79
2023-05-06T17:50:49.179Z,80.07
2023-05-06T17:53:15.748Z,78.25
2023-05-06T17:55:42.200Z,78.98
2023-05-06T17:58:08.686Z,78.94
2023-05-06T18:00:37.883Z,78.55
2023-05-06T18:03:04.591Z,76.79
2023-05-06T18:05:31.170Z,78.07
2023-05-06T18:07:58.312Z,79.46
2023-05-06T18:10:24.779Z,78.67
2023-05-06T18:12:51.314Z,77.42
2023-05-06T18:15:17.848Z,77.24
2023-05-06T18:17:44.352Z,77.98
2023-05-06T18:20:11.552Z,77.66
2023-05-06T18:22:39.036Z,78.67
2023-05-06T18:25:06.630Z,77.73
2023-05-06T18:27:33.046Z,78.19
2023-05-06T18:29:59.524Z,77.81
2023-05-06T18:32:26.203Z,76.37
2023-05-06T18:34:52.781Z,75.77
2023-05-06T18:37:19.216Z,79.12
2023-05-06T18:39:46.034Z,76.87
2023-05-06T18:42:12.458Z,76.74
2023-05-06T18:44:38.922Z,78.38
2023-05-06T18:47:05.692Z,78.04
2023-05-06T18:49:32.238Z,78.09
2023-05-06T18:51:58.827Z,76.58
2023-05-06T18:54:25.333Z,77.10
2023-05-06T18:56:51.928Z,77.93
2023-05-06T18:59:21.622Z,78.23
2023-05-06T19:01:48.125Z,77.87
2023-05-06T19:04:14.824Z,78.95
2023-05-06T19:06:41.593Z,77.12
2023-05-06T19:09:08.275Z,79.57
2023-05-06T19:11:35.025Z,79.23
2023-05-06T19:14:03.661Z,77.23
2023-05-06T19:16:30.323Z,77.01
2023-05-06T19:18:56.784Z,77.64
2023-05-06T19:21:23.259Z,78.60
2023-05-06T19:23:50.127Z,78.87
2023-05-06T19:26:16.639Z,78.03
2023-05-06T19:28:43.275Z,76.92
2023-05-06T19:31:10.778Z,76.34
2023-05-06T19:33:42.575Z,81.85
2023-05-06T19:36:09.421Z,78.98
2023-05-06T19:38:35.972Z,79.04
2023-05-06T19:41:03.023Z,80.49
2023-05-06T19:43:31.463Z,80.22
2023-05-06T19:45:58.010Z,78.26
2023-05-06T19:48:25.201Z,78.30
2023-05-06T19:50:54.596Z,78.45
2023-05-06T19:53:25.746Z,78.26
2023-05-06T19:55:53.779Z,78.25
2023-05-06T19:58:20.369Z,78.00
2023-05-06T20:00:46.870Z,80.89
2023-05-06T20:03:13.859Z,80.66
2023-05-06T20:05:41.272Z,82.02
2023-05-06T20:08:10.983Z,82.22
2023-05-06T20:10:38.118Z,80.77
2023-05-06T20:13:05.006Z,81.08
2023-05-06T20:15:33.798Z,79.33
2023-05-06T20:18:00.454Z,78.92
2023-05-06T20:20:34.097Z,81.51
2023-05-06T20:23:04.176Z,83.81
2023-05-06T20:25:31.188Z,80.42
2023-05-06T20:27:58.752Z,81.57
2023-05-06T20:30:26.513Z,81.11
2023-05-06T20:32:53.098Z,82.35
2023-05-06T20:35:19.709Z,80.99
2023-05-06T20:37:48.157Z,79.45
2023-05-06T20:40:15.398Z,81.02
2023-05-06T20:42:42.384Z,82.81
2023-05-06T20:45:13.276Z,80.86
2023-05-06T20:47:40.285Z,80.77
2023-05-06T20:50:07.850Z,81.90
2023-05-06T20:52:36.802Z,82.23
2023-05-06T20:55:05.384Z,81.45
2023-05-06T20:57:32.834Z,81.12
2023-05-06T21:00:00.110Z,82.62
2023-05-06T21:02:34.441Z,82.61
2023-05-06T21:05:07.853Z,81.32
2023-05-06T21:07:34.622Z,80.63
2023-05-06T21:10:03.203Z,80.36
2023-05-06T21:12:29.702Z,79.56
2023-05-06T21:14:56.194Z,81.26
2023-05-06T21:17:22.767Z,83.18
2023-05-06T21:19:52.495Z,83.53
2023-05-06T21:22:23.282Z,82.65
2023-05-06T21:24:50.678Z,81.33
2023-05-06T21:27:17.159Z,79.90
2023-05-06T21:29:43.623Z,81.81
2023-05-06T21:32:10.202Z,83.89
2023-05-06T21:34:36.644Z,83.41
2023-05-06T21:37:03.185Z,83.70
2023-05-06T21:39:29.691Z,81.87
2023-05-06T21:41:56.518Z,82.13
2023-05-06T21:44:22.983Z,81.93
2023-05-06T21:46:49.549Z,82.89
2023-05-06T21:49:16.143Z,83.93
2023-05-06T21:51:42.623Z,82.44
2023-05-06T21:54:09.206Z,84.61
2023-05-06T21:56:35.776Z,82.71
2023-05-06T21:59:02.195Z,83.33
2023-05-06T22:01:29.256Z,84.11
2023-05-06T22:03:56.020Z,82.61
2023-05-06T22:06:22.678Z,85.22
2023-05-06T22:08:49.163Z,83.62
2023-05-06T22:11:15.916Z,83.93
2023-05-06T22:13:42.446Z,85.30
2023-05-06T22:20:33.092Z,82.44
2023-05-06T22:22:59.535Z,85.20
2023-05-06T22:25:26.241Z,83.84
2023-05-06T22:27:52.707Z,84.13
2023-05-06T22:30:19.188Z,83.07
2023-05-06T22:32:45.685Z,84.92
2023-05-06T22:35:12.461Z,83.96
2023-05-06T22:37:39.189Z,81.76
2023-05-06T22:40:07.175Z,83.56
2023-05-06T22:42:33.630Z,82.51
2023-05-06T22:45:00.143Z,83.36
2023-05-06T22:47:26.811Z,84.46
2023-05-06T22:49:53.325Z,83.64
2023-05-06T22:52:20.317Z,84.19
2023-05-06T22:54:47.034Z,84.74
2023-05-06T22:57:14.406Z,84.28
2023-05-06T22:59:40.924Z,82.71
2023-05-06T23:02:07.414Z,83.58
2023-05-06T23:04:33.898Z,84.93
2023-05-06T23:07:00.478Z,82.87
2023-05-06T23:09:26.962Z,81.37
2023-05-06T23:11:53.422Z,82.68
2023-05-06T23:14:19.929Z,81.63
2023-05-06T23:16:46.500Z,83.10
2023-05-06T23:19:12.926Z,80.32
2023-05-06T23:21:41.503Z,81.65
2023-05-06T23:24:08.818Z,81.04
2023-05-06T23:26:35.325Z,82.15
2023-05-06T23:29:01.810Z,83.15
2023-05-06T23:31:28.360Z,81.90
2023-05-06T23:33:54.866Z,83.52
2023-05-06T23:36:21.607Z,84.05
2023-05-06T23:38:48.051Z,82.82
2023-05-06T23:41:14.538Z,83.81
2023-05-06T23:43:40.995Z,82.00
2023-05-06T23:46:07.500Z,81.50
2023-05-06T23:48:34.452Z,82.12
2023-05-06T23:51:00.980Z,82.35
2023-05-06T23:53:27.464Z,81.68
2023-05-06T23:55:54.033Z,82.40
2023-05-06T23:58:20.652Z,81.97
